Wylde Green, United Kingdom

4:49 PM BST on May 29, 2017 (GMT +0100)
Walmley | | Change Station

Elev 328 ft 52.53 °N, 1.78 °W | Updated 7 seconds ago

Rain
Rain
61.7 °F
Feels Like 61.7 °F
N
0.0
Wind Variable Wind from NNE
Gusts 0.0 mph

Today
High -- | Low -- °F
--% Chance of Precip.
Yesterday
High -- | Low -- °F
Precip. -- in
Pressure 29.86 in
Visibility -9999.0 miles
Clouds Mostly Cloudy 400 ft
Overcast 600 ft
Dew Point 61 °F
Humidity 96%
Rainfall 0.50 in
Snow Depth Not available.
4:53 AM 9:17 PM
Waxing Crescent, 20% visible
METAR EGBB 291520Z VRB02KT 3700 RA BKN004 OVC006 17/17 Q1011
Pressure 29.86 in
Visibility -9999.0 miles
Clouds Mostly Cloudy 400 ft
Overcast 600 ft
Dew Point 61 °F
Humidity 96%
Rainfall 0.50 in
Snow Depth Not available.
4:53 AM 9:17 PM
Waxing Crescent, 20% visible
METAR EGBB 291520Z VRB02KT 3700 RA BKN004 OVC006 17/17 Q1011

Get Severe Weather Alerts

Thanks for signing up!

Be on the lookout for a verification email in your inbox.

You'll start receiving the daily forecast at 6 AM.

×

10-Day Weather Forecast

×

Almanac

Astronomy

May. 29, 2017 Rise Set
Actual Time
Civil Twilight
Nautical Twilight
Astronomical Twilight
Moon
Length of Visible Light
Length of Day
Tomorrow will be .
, % of the Moon is Illuminated

Today's Extremes

Country Highs Country Lows

Community

WunderPhotos

Category 6

Welcome to Category 6. This is the collective home for Weather Underground's featured writeups by Dr. Jeff Masters (right), Bob Henson (left), Chris Burt, and other regular contributors.

Nearby

Air Quality

  Air Quality AQ Index Pollutant
Not available.

Snow Depth

Station Depth Elevation

Earthquake Activity

City Distance Mag. Time & Date
Minimum magnitude displayed is 2.5.

Coastal Water Temperatures

Place Temperature

Stations

Nearby Weather Stations

Station Location Temp. Windchill Dew Point Humidity Wind Precip. Elev Updated Type